sensor_id;sensor_type;location;lat;lon;timestamp;P1;durP1;ratioP1;P2;durP2;ratioP2
45338;SDS011;31071;51.478;5.710;2023-12-28T00:02:19;3.72;;;2.60;;
45338;SDS011;31071;51.478;5.710;2023-12-28T00:05:23;4.30;;;2.40;;
45338;SDS011;31071;51.478;5.710;2023-12-28T00:08:24;3.40;;;2.40;;
45338;SDS011;31071;51.478;5.710;2023-12-28T00:10:50;2.88;;;2.13;;
45338;SDS011;31071;51.478;5.710;2023-12-28T00:13:26;4.97;;;2.28;;
45338;SDS011;31071;51.478;5.710;2023-12-28T00:16:07;4.15;;;2.30;;
45338;SDS011;31071;51.478;5.710;2023-12-28T00:18:35;4.95;;;2.80;;
45338;SDS011;31071;51.478;5.710;2023-12-28T00:21:36;4.13;;;2.30;;
45338;SDS011;31071;51.478;5.710;2023-12-28T00:26:52;4.93;;;2.60;;
45338;SDS011;31071;51.478;5.710;2023-12-28T00:29:18;4.90;;;2.60;;
45338;SDS011;31071;51.478;5.710;2023-12-28T00:31:47;3.97;;;2.45;;
45338;SDS011;31071;51.478;5.710;2023-12-28T00:34:12;4.07;;;2.08;;
45338;SDS011;31071;51.478;5.710;2023-12-28T00:36:41;4.10;;;2.60;;
45338;SDS011;31071;51.478;5.710;2023-12-28T00:39:22;4.18;;;1.92;;
45338;SDS011;31071;51.478;5.710;2023-12-28T00:41:59;6.93;;;2.70;;
45338;SDS011;31071;51.478;5.710;2023-12-28T00:44:58;6.50;;;2.85;;
45338;SDS011;31071;51.478;5.710;2023-12-28T00:47:35;3.42;;;2.10;;
45338;SDS011;31071;51.478;5.710;2023-12-28T00:50:39;3.53;;;2.25;;
45338;SDS011;31071;51.478;5.710;2023-12-28T00:56:47;5.20;;;2.17;;
45338;SDS011;31071;51.478;5.710;2023-12-28T00:59:45;2.65;;;2.30;;
45338;SDS011;31071;51.478;5.710;2023-12-28T01:02:40;3.88;;;2.40;;
45338;SDS011;31071;51.478;5.710;2023-12-28T01:05:06;3.20;;;2.60;;
45338;SDS011;31071;51.478;5.710;2023-12-28T01:07:32;3.53;;;2.42;;
45338;SDS011;31071;51.478;5.710;2023-12-28T01:10:08;4.95;;;2.30;;
45338;SDS011;31071;51.478;5.710;2023-12-28T01:12:53;3.28;;;2.17;;
45338;SDS011;31071;51.478;5.710;2023-12-28T01:15:34;5.85;;;2.45;;
45338;SDS011;31071;51.478;5.710;2023-12-28T01:18:00;4.18;;;2.67;;
45338;SDS011;31071;51.478;5.710;2023-12-28T01:20:26;5.20;;;2.40;;
45338;SDS011;31071;51.478;5.710;2023-12-28T01:22:51;4.70;;;2.60;;
45338;SDS011;31071;51.478;5.710;2023-12-28T01:25:17;5.10;;;2.60;;
45338;SDS011;31071;51.478;5.710;2023-12-28T01:27:46;6.25;;;2.47;;
45338;SDS011;31071;51.478;5.710;2023-12-28T01:30:12;5.90;;;2.50;;
45338;SDS011;31071;51.478;5.710;2023-12-28T01:36:34;3.33;;;2.60;;
45338;SDS011;31071;51.478;5.710;2023-12-28T01:39:20;3.25;;;2.15;;
45338;SDS011;31071;51.478;5.710;2023-12-28T01:42:12;4.30;;;2.50;;
45338;SDS011;31071;51.478;5.710;2023-12-28T01:44:38;3.97;;;2.50;;
45338;SDS011;31071;51.478;5.710;2023-12-28T01:47:04;3.75;;;2.42;;
45338;SDS011;31071;51.478;5.710;2023-12-28T01:49:30;6.78;;;2.53;;
45338;SDS011;31071;51.478;5.710;2023-12-28T01:52:00;3.63;;;2.53;;
45338;SDS011;31071;51.478;5.710;2023-12-28T01:54:27;5.65;;;3.00;;
45338;SDS011;31071;51.478;5.710;2023-12-28T01:56:54;6.68;;;2.45;;
45338;SDS011;31071;51.478;5.710;2023-12-28T01:59:20;4.80;;;3.28;;
45338;SDS011;31071;51.478;5.710;2023-12-28T02:01:46;4.13;;;2.50;;
45338;SDS011;31071;51.478;5.710;2023-12-28T02:04:16;4.00;;;2.60;;
45338;SDS011;31071;51.478;5.710;2023-12-28T02:07:35;5.45;;;2.70;;
45338;SDS011;31071;51.478;5.710;2023-12-28T02:10:02;5.25;;;2.58;;
45338;SDS011;31071;51.478;5.710;2023-12-28T02:12:30;4.13;;;2.40;;
45338;SDS011;31071;51.478;5.710;2023-12-28T02:14:56;4.43;;;2.60;;
45338;SDS011;31071;51.478;5.710;2023-12-28T02:17:33;6.25;;;2.53;;
45338;SDS011;31071;51.478;5.710;2023-12-28T02:20:45;4.15;;;2.45;;
45338;SDS011;31071;51.478;5.710;2023-12-28T02:23:15;5.57;;;2.70;;
45338;SDS011;31071;51.478;5.710;2023-12-28T02:25:44;5.82;;;2.67;;
45338;SDS011;31071;51.478;5.710;2023-12-28T02:28:33;6.00;;;2.60;;
45338;SDS011;31071;51.478;5.710;2023-12-28T02:31:45;4.20;;;2.28;;
45338;SDS011;31071;51.478;5.710;2023-12-28T02:37:33;5.15;;;2.65;;
45338;SDS011;31071;51.478;5.710;2023-12-28T02:39:59;5.35;;;2.72;;
45338;SDS011;31071;51.478;5.710;2023-12-28T02:42:37;3.60;;;2.63;;
45338;SDS011;31071;51.478;5.710;2023-12-28T02:45:26;3.40;;;2.45;;
45338;SDS011;31071;51.478;5.710;2023-12-28T02:51:25;4.75;;;2.47;;
45338;SDS011;31071;51.478;5.710;2023-12-28T02:54:16;7.22;;;2.80;;
45338;SDS011;31071;51.478;5.710;2023-12-28T02:57:13;5.53;;;2.83;;
45338;SDS011;31071;51.478;5.710;2023-12-28T03:03:22;5.95;;;2.90;;
45338;SDS011;31071;51.478;5.710;2023-12-28T03:06:29;6.57;;;3.17;;
45338;SDS011;31071;51.478;5.710;2023-12-28T03:09:13;4.53;;;2.92;;
45338;SDS011;31071;51.478;5.710;2023-12-28T03:15:36;6.68;;;2.90;;
45338;SDS011;31071;51.478;5.710;2023-12-28T03:18:02;5.65;;;3.08;;
45338;SDS011;31071;51.478;5.710;2023-12-28T03:20:40;6.20;;;2.78;;
45338;SDS011;31071;51.478;5.710;2023-12-28T03:23:29;6.93;;;3.03;;
45338;SDS011;31071;51.478;5.710;2023-12-28T03:26:31;7.47;;;2.97;;
45338;SDS011;31071;51.478;5.710;2023-12-28T03:29:12;5.00;;;3.00;;
45338;SDS011;31071;51.478;5.710;2023-12-28T03:31:56;5.40;;;3.30;;
45338;SDS011;31071;51.478;5.710;2023-12-28T03:38:24;5.13;;;2.72;;
45338;SDS011;31071;51.478;5.710;2023-12-28T03:41:18;5.15;;;3.03;;
45338;SDS011;31071;51.478;5.710;2023-12-28T03:44:18;3.30;;;2.50;;
45338;SDS011;31071;51.478;5.710;2023-12-28T03:46:56;5.20;;;3.30;;
45338;SDS011;31071;51.478;5.710;2023-12-28T03:49:46;7.97;;;3.08;;
45338;SDS011;31071;51.478;5.710;2023-12-28T03:52:12;6.20;;;3.03;;
45338;SDS011;31071;51.478;5.710;2023-12-28T03:54:57;4.75;;;2.97;;
45338;SDS011;31071;51.478;5.710;2023-12-28T03:57:23;5.20;;;2.60;;
45338;SDS011;31071;51.478;5.710;2023-12-28T03:59:51;6.30;;;3.55;;
45338;SDS011;31071;51.478;5.710;2023-12-28T04:02:32;6.70;;;2.97;;
45338;SDS011;31071;51.478;5.710;2023-12-28T04:05:16;4.22;;;2.60;;
45338;SDS011;31071;51.478;5.710;2023-12-28T04:08:09;8.00;;;2.67;;
45338;SDS011;31071;51.478;5.710;2023-12-28T04:11:05;6.25;;;2.78;;
45338;SDS011;31071;51.478;5.710;2023-12-28T04:14:02;7.75;;;2.60;;
45338;SDS011;31071;51.478;5.710;2023-12-28T04:19:17;4.82;;;2.78;;
45338;SDS011;31071;51.478;5.710;2023-12-28T04:22:07;6.43;;;2.78;;
45338;SDS011;31071;51.478;5.710;2023-12-28T04:24:42;6.05;;;2.67;;
45338;SDS011;31071;51.478;5.710;2023-12-28T04:27:20;5.80;;;2.75;;
45338;SDS011;31071;51.478;5.710;2023-12-28T04:30:01;6.07;;;2.55;;
45338;SDS011;31071;51.478;5.710;2023-12-28T04:32:29;8.38;;;2.58;;
45338;SDS011;31071;51.478;5.710;2023-12-28T04:35:04;8.80;;;3.00;;
45338;SDS011;31071;51.478;5.710;2023-12-28T04:37:51;5.15;;;2.42;;
45338;SDS011;31071;51.478;5.710;2023-12-28T04:40:51;5.57;;;2.63;;
45338;SDS011;31071;51.478;5.710;2023-12-28T04:43:44;6.05;;;2.70;;
45338;SDS011;31071;51.478;5.710;2023-12-28T04:46:38;9.02;;;2.55;;
45338;SDS011;31071;51.478;5.710;2023-12-28T04:49:46;6.40;;;2.65;;
45338;SDS011;31071;51.478;5.710;2023-12-28T04:52:12;7.40;;;2.53;;
45338;SDS011;31071;51.478;5.710;2023-12-28T04:54:40;6.82;;;2.42;;
45338;SDS011;31071;51.478;5.710;2023-12-28T04:57:06;3.67;;;2.38;;
45338;SDS011;31071;51.478;5.710;2023-12-28T04:59:37;7.25;;;2.45;;
45338;SDS011;31071;51.478;5.710;2023-12-28T05:02:22;6.55;;;2.85;;
45338;SDS011;31071;51.478;5.710;2023-12-28T05:05:50;7.55;;;2.55;;
45338;SDS011;31071;51.478;5.710;2023-12-28T05:08:32;5.97;;;2.53;;
45338;SDS011;31071;51.478;5.710;2023-12-28T05:14:40;8.70;;;2.20;;
45338;SDS011;31071;51.478;5.710;2023-12-28T05:17:06;5.45;;;2.30;;
45338;SDS011;31071;51.478;5.710;2023-12-28T05:19:44;7.00;;;2.25;;
45338;SDS011;31071;51.478;5.710;2023-12-28T05:22:41;8.63;;;2.17;;
45338;SDS011;31071;51.478;5.710;2023-12-28T05:25:16;9.02;;;2.40;;
45338;SDS011;31071;51.478;5.710;2023-12-28T05:31:33;8.30;;;1.95;;
45338;SDS011;31071;51.478;5.710;2023-12-28T05:34:43;8.38;;;2.15;;
45338;SDS011;31071;51.478;5.710;2023-12-28T05:37:14;6.80;;;2.10;;
45338;SDS011;31071;51.478;5.710;2023-12-28T05:39:40;9.45;;;1.95;;
45338;SDS011;31071;51.478;5.710;2023-12-28T05:45:00;11.95;;;2.28;;
45338;SDS011;31071;51.478;5.710;2023-12-28T05:47:29;8.05;;;1.80;;
45338;SDS011;31071;51.478;5.710;2023-12-28T05:49:54;12.82;;;2.50;;
45338;SDS011;31071;51.478;5.710;2023-12-28T05:52:23;12.57;;;2.17;;
45338;SDS011;31071;51.478;5.710;2023-12-28T05:54:49;6.80;;;1.90;;
45338;SDS011;31071;51.478;5.710;2023-12-28T05:57:19;8.70;;;1.90;;
45338;SDS011;31071;51.478;5.710;2023-12-28T05:59:47;12.48;;;2.20;;
45338;SDS011;31071;51.478;5.710;2023-12-28T06:02:15;8.52;;;1.92;;
45338;SDS011;31071;51.478;5.710;2023-12-28T06:04:41;7.82;;;1.83;;
45338;SDS011;31071;51.478;5.710;2023-12-28T06:07:10;9.70;;;2.20;;
45338;SDS011;31071;51.478;5.710;2023-12-28T06:09:36;8.40;;;1.88;;
45338;SDS011;31071;51.478;5.710;2023-12-28T06:15:23;13.18;;;1.90;;
45338;SDS011;31071;51.478;5.710;2023-12-28T06:18:15;9.15;;;1.75;;
45338;SDS011;31071;51.478;5.710;2023-12-28T06:21:21;12.38;;;1.98;;
45338;SDS011;31071;51.478;5.710;2023-12-28T06:24:56;10.93;;;2.30;;
45338;SDS011;31071;51.478;5.710;2023-12-28T06:28:08;8.45;;;1.67;;
45338;SDS011;31071;51.478;5.710;2023-12-28T06:31:05;8.82;;;2.47;;
45338;SDS011;31071;51.478;5.710;2023-12-28T06:33:34;8.57;;;2.28;;
45338;SDS011;31071;51.478;5.710;2023-12-28T06:36:04;13.50;;;2.15;;
45338;SDS011;31071;51.478;5.710;2023-12-28T06:38:31;12.20;;;2.25;;
45338;SDS011;31071;51.478;5.710;2023-12-28T06:41:12;13.63;;;2.67;;
45338;SDS011;31071;51.478;5.710;2023-12-28T06:43:41;13.73;;;2.30;;
45338;SDS011;31071;51.478;5.710;2023-12-28T06:46:07;13.98;;;2.42;;
45338;SDS011;31071;51.478;5.710;2023-12-28T06:48:33;9.02;;;1.85;;
45338;SDS011;31071;51.478;5.710;2023-12-28T06:50:59;15.43;;;2.17;;
45338;SDS011;31071;51.478;5.710;2023-12-28T06:53:25;9.45;;;1.88;;
45338;SDS011;31071;51.478;5.710;2023-12-28T06:55:50;10.68;;;1.88;;
45338;SDS011;31071;51.478;5.710;2023-12-28T06:58:16;14.70;;;2.20;;
45338;SDS011;31071;51.478;5.710;2023-12-28T07:00:42;11.02;;;2.20;;
45338;SDS011;31071;51.478;5.710;2023-12-28T07:03:09;19.85;;;2.35;;
45338;SDS011;31071;51.478;5.710;2023-12-28T07:05:34;12.65;;;2.53;;
45338;SDS011;31071;51.478;5.710;2023-12-28T07:08:03;12.25;;;2.40;;
45338;SDS011;31071;51.478;5.710;2023-12-28T07:10:32;13.13;;;2.67;;
45338;SDS011;31071;51.478;5.710;2023-12-28T07:12:58;18.40;;;2.70;;
45338;SDS011;31071;51.478;5.710;2023-12-28T07:15:24;14.90;;;2.50;;
45338;SDS011;31071;51.478;5.710;2023-12-28T07:17:51;15.15;;;2.45;;
45338;SDS011;31071;51.478;5.710;2023-12-28T07:20:16;12.13;;;2.30;;
45338;SDS011;31071;51.478;5.710;2023-12-28T07:22:42;15.07;;;2.28;;
45338;SDS011;31071;51.478;5.710;2023-12-28T07:25:08;14.02;;;2.38;;
45338;SDS011;31071;51.478;5.710;2023-12-28T07:27:34;16.67;;;2.38;;
45338;SDS011;31071;51.478;5.710;2023-12-28T07:29:59;14.73;;;2.20;;
45338;SDS011;31071;51.478;5.710;2023-12-28T07:32:26;15.93;;;2.40;;
45338;SDS011;31071;51.478;5.710;2023-12-28T07:34:52;16.85;;;2.58;;
45338;SDS011;31071;51.478;5.710;2023-12-28T07:37:18;10.95;;;2.20;;
45338;SDS011;31071;51.478;5.710;2023-12-28T07:39:44;17.13;;;2.38;;
45338;SDS011;31071;51.478;5.710;2023-12-28T07:42:10;16.42;;;2.17;;
45338;SDS011;31071;51.478;5.710;2023-12-28T07:44:36;10.98;;;2.40;;
45338;SDS011;31071;51.478;5.710;2023-12-28T07:47:01;14.95;;;2.40;;
45338;SDS011;31071;51.478;5.710;2023-12-28T07:49:28;16.23;;;2.60;;
45338;SDS011;31071;51.478;5.710;2023-12-28T07:51:58;12.40;;;2.08;;
45338;SDS011;31071;51.478;5.710;2023-12-28T07:54:24;12.88;;;2.15;;
45338;SDS011;31071;51.478;5.710;2023-12-28T07:56:50;11.68;;;2.10;;
45338;SDS011;31071;51.478;5.710;2023-12-28T07:59:15;19.08;;;2.92;;
45338;SDS011;31071;51.478;5.710;2023-12-28T08:01:41;14.68;;;2.40;;
45338;SDS011;31071;51.478;5.710;2023-12-28T08:04:07;13.20;;;2.50;;
45338;SDS011;31071;51.478;5.710;2023-12-28T08:06:33;15.00;;;3.10;;
45338;SDS011;31071;51.478;5.710;2023-12-28T08:08:59;18.75;;;3.35;;
45338;SDS011;31071;51.478;5.710;2023-12-28T08:11:28;21.10;;;3.35;;
45338;SDS011;31071;51.478;5.710;2023-12-28T08:13:53;12.63;;;2.95;;
45338;SDS011;31071;51.478;5.710;2023-12-28T08:16:22;16.75;;;2.42;;
45338;SDS011;31071;51.478;5.710;2023-12-28T08:18:51;13.43;;;2.67;;
45338;SDS011;31071;51.478;5.710;2023-12-28T08:21:17;13.52;;;2.05;;
45338;SDS011;31071;51.478;5.710;2023-12-28T08:23:43;14.65;;;2.75;;
45338;SDS011;31071;51.478;5.710;2023-12-28T08:26:10;14.43;;;2.92;;
45338;SDS011;31071;51.478;5.710;2023-12-28T08:28:36;14.55;;;2.60;;
45338;SDS011;31071;51.478;5.710;2023-12-28T08:31:02;13.15;;;2.53;;
45338;SDS011;31071;51.478;5.710;2023-12-28T08:33:36;13.00;;;2.47;;
45338;SDS011;31071;51.478;5.710;2023-12-28T08:36:10;9.82;;;2.50;;
45338;SDS011;31071;51.478;5.710;2023-12-28T08:38:57;19.98;;;2.97;;
45338;SDS011;31071;51.478;5.710;2023-12-28T08:41:41;11.32;;;2.30;;
45338;SDS011;31071;51.478;5.710;2023-12-28T08:44:07;20.55;;;2.60;;
45338;SDS011;31071;51.478;5.710;2023-12-28T08:46:35;14.45;;;2.40;;
45338;SDS011;31071;51.478;5.710;2023-12-28T08:49:00;11.60;;;2.33;;
45338;SDS011;31071;51.478;5.710;2023-12-28T08:51:26;19.40;;;3.33;;
45338;SDS011;31071;51.478;5.710;2023-12-28T08:53:55;15.30;;;2.47;;
45338;SDS011;31071;51.478;5.710;2023-12-28T08:56:21;14.18;;;2.80;;
45338;SDS011;31071;51.478;5.710;2023-12-28T08:59:13;14.10;;;2.38;;
45338;SDS011;31071;51.478;5.710;2023-12-28T09:01:41;14.30;;;2.70;;
45338;SDS011;31071;51.478;5.710;2023-12-28T09:04:13;17.92;;;2.60;;
45338;SDS011;31071;51.478;5.710;2023-12-28T09:06:39;12.93;;;2.20;;
45338;SDS011;31071;51.478;5.710;2023-12-28T09:09:07;13.27;;;2.45;;
45338;SDS011;31071;51.478;5.710;2023-12-28T09:11:34;15.45;;;2.40;;
45338;SDS011;31071;51.478;5.710;2023-12-28T09:14:05;19.80;;;2.40;;
45338;SDS011;31071;51.478;5.710;2023-12-28T09:16:30;14.35;;;2.72;;
45338;SDS011;31071;51.478;5.710;2023-12-28T09:18:56;15.15;;;2.17;;
45338;SDS011;31071;51.478;5.710;2023-12-28T09:21:22;11.30;;;2.65;;
45338;SDS011;31071;51.478;5.710;2023-12-28T09:23:55;14.65;;;2.40;;
45338;SDS011;31071;51.478;5.710;2023-12-28T09:26:55;17.23;;;2.78;;
45338;SDS011;31071;51.478;5.710;2023-12-28T09:29:30;10.30;;;2.45;;
45338;SDS011;31071;51.478;5.710;2023-12-28T09:32:02;15.70;;;3.17;;
45338;SDS011;31071;51.478;5.710;2023-12-28T09:34:49;10.65;;;2.42;;
45338;SDS011;31071;51.478;5.710;2023-12-28T09:37:15;12.02;;;2.28;;
45338;SDS011;31071;51.478;5.710;2023-12-28T09:39:42;13.40;;;2.13;;
45338;SDS011;31071;51.478;5.710;2023-12-28T09:42:19;13.98;;;2.65;;
45338;SDS011;31071;51.478;5.710;2023-12-28T09:47:36;13.45;;;2.60;;
45338;SDS011;31071;51.478;5.710;2023-12-28T09:50:16;15.88;;;2.33;;
45338;SDS011;31071;51.478;5.710;2023-12-28T09:52:43;12.82;;;2.65;;
45338;SDS011;31071;51.478;5.710;2023-12-28T09:55:10;7.40;;;2.20;;
45338;SDS011;31071;51.478;5.710;2023-12-28T09:57:36;18.15;;;2.72;;
45338;SDS011;31071;51.478;5.710;2023-12-28T10:00:03;17.27;;;2.72;;
45338;SDS011;31071;51.478;5.710;2023-12-28T10:02:37;12.27;;;2.38;;
45338;SDS011;31071;51.478;5.710;2023-12-28T10:08:02;15.38;;;2.63;;
45338;SDS011;31071;51.478;5.710;2023-12-28T10:16:40;10.52;;;2.17;;
45338;SDS011;31071;51.478;5.710;2023-12-28T10:19:07;13.70;;;2.08;;
45338;SDS011;31071;51.478;5.710;2023-12-28T10:21:33;18.63;;;2.63;;
45338;SDS011;31071;51.478;5.710;2023-12-28T10:23:59;15.40;;;2.90;;
45338;SDS011;31071;51.478;5.710;2023-12-28T10:27:11;17.98;;;2.47;;
45338;SDS011;31071;51.478;5.710;2023-12-28T10:29:24;16.23;;;2.55;;
45338;SDS011;31071;51.478;5.710;2023-12-28T10:34:43;22.15;;;3.00;;
45338;SDS011;31071;51.478;5.710;2023-12-28T10:37:10;14.07;;;2.13;;
45338;SDS011;31071;51.478;5.710;2023-12-28T10:39:36;12.27;;;2.42;;
45338;SDS011;31071;51.478;5.710;2023-12-28T10:42:16;16.67;;;2.58;;
45338;SDS011;31071;51.478;5.710;2023-12-28T10:44:59;15.93;;;3.15;;
45338;SDS011;31071;51.478;5.710;2023-12-28T10:47:31;13.95;;;2.63;;
45338;SDS011;31071;51.478;5.710;2023-12-28T10:50:02;17.92;;;2.90;;
45338;SDS011;31071;51.478;5.710;2023-12-28T10:52:30;19.63;;;2.65;;
45338;SDS011;31071;51.478;5.710;2023-12-28T10:57:49;16.75;;;2.78;;
45338;SDS011;31071;51.478;5.710;2023-12-28T11:00:30;11.80;;;3.00;;
45338;SDS011;31071;51.478;5.710;2023-12-28T11:03:02;18.60;;;2.72;;
45338;SDS011;31071;51.478;5.710;2023-12-28T11:05:28;12.00;;;2.10;;
45338;SDS011;31071;51.478;5.710;2023-12-28T11:07:55;11.25;;;2.83;;
45338;SDS011;31071;51.478;5.710;2023-12-28T11:14:05;19.27;;;2.50;;
45338;SDS011;31071;51.478;5.710;2023-12-28T11:16:32;16.90;;;2.85;;
45338;SDS011;31071;51.478;5.710;2023-12-28T11:18:59;12.10;;;2.88;;
45338;SDS011;31071;51.478;5.710;2023-12-28T11:21:25;22.80;;;2.72;;
45338;SDS011;31071;51.478;5.710;2023-12-28T11:23:53;14.52;;;2.60;;
45338;SDS011;31071;51.478;5.710;2023-12-28T11:26:21;12.27;;;2.63;;
45338;SDS011;31071;51.478;5.710;2023-12-28T11:28:50;15.20;;;3.20;;
45338;SDS011;31071;51.478;5.710;2023-12-28T11:31:36;19.67;;;3.15;;
45338;SDS011;31071;51.478;5.710;2023-12-28T11:34:05;17.38;;;2.53;;
45338;SDS011;31071;51.478;5.710;2023-12-28T11:36:38;17.13;;;2.53;;
45338;SDS011;31071;51.478;5.710;2023-12-28T11:39:10;16.52;;;2.92;;
45338;SDS011;31071;51.478;5.710;2023-12-28T11:41:48;14.70;;;2.67;;
45338;SDS011;31071;51.478;5.710;2023-12-28T11:44:43;22.05;;;2.95;;
45338;SDS011;31071;51.478;5.710;2023-12-28T11:49:45;12.50;;;2.47;;
45338;SDS011;31071;51.478;5.710;2023-12-28T11:52:22;12.88;;;2.50;;
45338;SDS011;31071;51.478;5.710;2023-12-28T11:54:53;16.65;;;2.40;;
45338;SDS011;31071;51.478;5.710;2023-12-28T11:57:24;18.77;;;2.72;;
45338;SDS011;31071;51.478;5.710;2023-12-28T11:59:55;14.38;;;2.30;;
45338;SDS011;31071;51.478;5.710;2023-12-28T12:02:24;16.92;;;2.72;;
45338;SDS011;31071;51.478;5.710;2023-12-28T12:04:51;15.90;;;3.15;;
45338;SDS011;31071;51.478;5.710;2023-12-28T12:07:18;15.13;;;3.13;;
45338;SDS011;31071;51.478;5.710;2023-12-28T12:09:51;15.65;;;3.00;;
45338;SDS011;31071;51.478;5.710;2023-12-28T12:12:25;19.05;;;3.55;;
45338;SDS011;31071;51.478;5.710;2023-12-28T12:15:14;14.52;;;2.25;;
45338;SDS011;31071;51.478;5.710;2023-12-28T12:17:41;24.77;;;3.35;;
45338;SDS011;31071;51.478;5.710;2023-12-28T12:20:07;23.35;;;3.03;;
45338;SDS011;31071;51.478;5.710;2023-12-28T12:22:34;19.63;;;3.25;;
45338;SDS011;31071;51.478;5.710;2023-12-28T12:25:01;15.13;;;3.20;;
45338;SDS011;31071;51.478;5.710;2023-12-28T12:27:30;15.02;;;2.90;;
45338;SDS011;31071;51.478;5.710;2023-12-28T12:29:56;13.43;;;2.45;;
45338;SDS011;31071;51.478;5.710;2023-12-28T12:35:27;18.90;;;3.17;;
45338;SDS011;31071;51.478;5.710;2023-12-28T12:37:53;15.70;;;3.45;;
45338;SDS011;31071;51.478;5.710;2023-12-28T12:40:41;17.20;;;2.72;;
45338;SDS011;31071;51.478;5.710;2023-12-28T12:43:08;16.10;;;3.00;;
45338;SDS011;31071;51.478;5.710;2023-12-28T12:45:35;20.58;;;2.80;;
45338;SDS011;31071;51.478;5.710;2023-12-28T12:48:04;14.93;;;2.42;;
45338;SDS011;31071;51.478;5.710;2023-12-28T12:50:31;16.20;;;2.45;;
45338;SDS011;31071;51.478;5.710;2023-12-28T12:53:06;20.00;;;3.83;;
45338;SDS011;31071;51.478;5.710;2023-12-28T12:55:33;17.67;;;3.25;;
45338;SDS011;31071;51.478;5.710;2023-12-28T12:57:59;24.27;;;3.42;;
45338;SDS011;31071;51.478;5.710;2023-12-28T13:00:41;15.20;;;3.33;;
45338;SDS011;31071;51.478;5.710;2023-12-28T13:03:07;19.90;;;2.80;;
45338;SDS011;31071;51.478;5.710;2023-12-28T13:05:58;17.08;;;2.45;;
45338;SDS011;31071;51.478;5.710;2023-12-28T13:08:47;16.80;;;3.03;;
45338;SDS011;31071;51.478;5.710;2023-12-28T13:11:12;16.08;;;2.85;;
45338;SDS011;31071;51.478;5.710;2023-12-28T13:13:38;22.23;;;3.28;;
45338;SDS011;31071;51.478;5.710;2023-12-28T13:16:04;22.88;;;3.33;;
45338;SDS011;31071;51.478;5.710;2023-12-28T13:18:30;19.23;;;3.47;;
45338;SDS011;31071;51.478;5.710;2023-12-28T13:20:57;14.90;;;2.63;;
45338;SDS011;31071;51.478;5.710;2023-12-28T13:23:23;16.08;;;2.83;;
45338;SDS011;31071;51.478;5.710;2023-12-28T13:25:49;16.58;;;3.20;;
45338;SDS011;31071;51.478;5.710;2023-12-28T13:28:25;23.60;;;3.17;;
45338;SDS011;31071;51.478;5.710;2023-12-28T13:30:56;17.88;;;2.65;;
45338;SDS011;31071;51.478;5.710;2023-12-28T13:33:22;21.95;;;3.47;;
45338;SDS011;31071;51.478;5.710;2023-12-28T13:35:49;20.42;;;3.22;;
45338;SDS011;31071;51.478;5.710;2023-12-28T13:40:52;14.88;;;3.15;;
45338;SDS011;31071;51.478;5.710;2023-12-28T13:43:18;18.30;;;2.65;;
45338;SDS011;31071;51.478;5.710;2023-12-28T13:45:43;16.30;;;2.85;;
45338;SDS011;31071;51.478;5.710;2023-12-28T13:48:09;20.23;;;2.95;;
45338;SDS011;31071;51.478;5.710;2023-12-28T13:50:37;14.43;;;2.85;;
45338;SDS011;31071;51.478;5.710;2023-12-28T13:53:11;16.35;;;3.15;;
45338;SDS011;31071;51.478;5.710;2023-12-28T13:55:37;19.38;;;2.83;;
45338;SDS011;31071;51.478;5.710;2023-12-28T13:58:03;21.77;;;2.95;;
45338;SDS011;31071;51.478;5.710;2023-12-28T14:00:29;17.73;;;3.45;;
45338;SDS011;31071;51.478;5.710;2023-12-28T14:02:55;17.05;;;2.83;;
45338;SDS011;31071;51.478;5.710;2023-12-28T14:05:21;21.60;;;2.70;;
45338;SDS011;31071;51.478;5.710;2023-12-28T14:07:48;15.43;;;2.55;;
45338;SDS011;31071;51.478;5.710;2023-12-28T14:10:14;13.02;;;2.53;;
45338;SDS011;31071;51.478;5.710;2023-12-28T14:12:49;14.40;;;2.38;;
45338;SDS011;31071;51.478;5.710;2023-12-28T14:15:15;16.92;;;3.15;;
45338;SDS011;31071;51.478;5.710;2023-12-28T14:17:41;23.05;;;3.70;;
45338;SDS011;31071;51.478;5.710;2023-12-28T14:20:07;19.30;;;3.28;;
45338;SDS011;31071;51.478;5.710;2023-12-28T14:22:36;12.77;;;2.58;;
45338;SDS011;31071;51.478;5.710;2023-12-28T14:25:03;15.77;;;2.92;;
45338;SDS011;31071;51.478;5.710;2023-12-28T14:27:30;19.98;;;3.17;;
45338;SDS011;31071;51.478;5.710;2023-12-28T14:29:56;12.32;;;2.40;;
45338;SDS011;31071;51.478;5.710;2023-12-28T14:32:22;18.88;;;3.35;;
45338;SDS011;31071;51.478;5.710;2023-12-28T14:34:49;26.15;;;2.97;;
45338;SDS011;31071;51.478;5.710;2023-12-28T14:37:15;13.18;;;2.70;;
45338;SDS011;31071;51.478;5.710;2023-12-28T14:39:43;14.45;;;2.50;;
45338;SDS011;31071;51.478;5.710;2023-12-28T14:42:09;15.63;;;3.00;;
45338;SDS011;31071;51.478;5.710;2023-12-28T14:44:39;15.48;;;3.03;;
45338;SDS011;31071;51.478;5.710;2023-12-28T14:47:05;19.95;;;2.85;;
45338;SDS011;31071;51.478;5.710;2023-12-28T14:49:31;17.85;;;2.70;;
45338;SDS011;31071;51.478;5.710;2023-12-28T14:52:02;20.67;;;2.90;;
45338;SDS011;31071;51.478;5.710;2023-12-28T14:54:36;16.85;;;2.85;;
45338;SDS011;31071;51.478;5.710;2023-12-28T14:57:03;18.17;;;2.92;;
45338;SDS011;31071;51.478;5.710;2023-12-28T14:59:29;14.63;;;3.20;;
45338;SDS011;31071;51.478;5.710;2023-12-28T15:01:55;14.85;;;2.60;;
45338;SDS011;31071;51.478;5.710;2023-12-28T15:04:29;13.90;;;2.78;;
45338;SDS011;31071;51.478;5.710;2023-12-28T15:07:08;16.27;;;2.92;;
45338;SDS011;31071;51.478;5.710;2023-12-28T15:09:37;18.17;;;2.97;;
45338;SDS011;31071;51.478;5.710;2023-12-28T15:14:48;17.23;;;2.50;;
45338;SDS011;31071;51.478;5.710;2023-12-28T15:17:14;16.98;;;2.95;;
45338;SDS011;31071;51.478;5.710;2023-12-28T15:19:49;21.10;;;2.97;;
45338;SDS011;31071;51.478;5.710;2023-12-28T15:22:15;16.67;;;2.95;;
45338;SDS011;31071;51.478;5.710;2023-12-28T15:24:42;15.38;;;2.55;;
45338;SDS011;31071;51.478;5.710;2023-12-28T15:27:08;13.18;;;2.33;;
45338;SDS011;31071;51.478;5.710;2023-12-28T15:29:33;14.00;;;2.58;;
45338;SDS011;31071;51.478;5.710;2023-12-28T15:31:59;17.60;;;2.17;;
45338;SDS011;31071;51.478;5.710;2023-12-28T15:34:25;16.55;;;3.00;;
45338;SDS011;31071;51.478;5.710;2023-12-28T15:36:51;14.13;;;2.60;;
45338;SDS011;31071;51.478;5.710;2023-12-28T15:39:17;14.80;;;2.10;;
45338;SDS011;31071;51.478;5.710;2023-12-28T15:41:46;14.50;;;2.28;;
45338;SDS011;31071;51.478;5.710;2023-12-28T15:44:15;16.42;;;2.60;;
45338;SDS011;31071;51.478;5.710;2023-12-28T15:46:41;18.33;;;2.80;;
45338;SDS011;31071;51.478;5.710;2023-12-28T15:49:08;15.15;;;2.85;;
45338;SDS011;31071;51.478;5.710;2023-12-28T15:51:34;22.58;;;2.92;;
45338;SDS011;31071;51.478;5.710;2023-12-28T15:54:02;16.08;;;2.65;;
45338;SDS011;31071;51.478;5.710;2023-12-28T15:56:29;12.93;;;3.05;;
45338;SDS011;31071;51.478;5.710;2023-12-28T15:58:58;13.65;;;2.70;;
45338;SDS011;31071;51.478;5.710;2023-12-28T16:01:27;14.45;;;2.60;;
45338;SDS011;31071;51.478;5.710;2023-12-28T16:03:55;17.23;;;2.55;;
45338;SDS011;31071;51.478;5.710;2023-12-28T16:06:24;15.55;;;2.67;;
45338;SDS011;31071;51.478;5.710;2023-12-28T16:08:52;10.52;;;2.10;;
45338;SDS011;31071;51.478;5.710;2023-12-28T16:11:19;13.68;;;2.47;;
45338;SDS011;31071;51.478;5.710;2023-12-28T16:13:48;16.77;;;3.22;;
45338;SDS011;31071;51.478;5.710;2023-12-28T16:16:21;15.60;;;2.65;;
45338;SDS011;31071;51.478;5.710;2023-12-28T16:18:58;12.80;;;2.08;;
45338;SDS011;31071;51.478;5.710;2023-12-28T16:21:33;20.25;;;2.90;;
45338;SDS011;31071;51.478;5.710;2023-12-28T16:23:59;16.38;;;2.47;;
45338;SDS011;31071;51.478;5.710;2023-12-28T16:29:28;19.05;;;2.88;;
45338;SDS011;31071;51.478;5.710;2023-12-28T16:31:54;14.80;;;2.72;;
45338;SDS011;31071;51.478;5.710;2023-12-28T16:34:25;18.48;;;2.63;;